createdAt,value
2018-09-29T00:02:04.884Z,1.87
2018-09-29T00:04:33.520Z,1.60
2018-09-29T00:07:02.181Z,1.80
2018-09-29T00:09:30.831Z,1.80
2018-09-29T00:11:59.504Z,1.87
2018-09-29T00:14:28.136Z,1.60
2018-09-29T00:16:56.801Z,1.60
2018-09-29T00:19:25.493Z,1.80
2018-09-29T00:21:54.161Z,2.00
2018-09-29T00:24:22.814Z,1.83
2018-09-29T00:26:52.404Z,1.93
2018-09-29T00:29:21.049Z,1.83
2018-09-29T00:31:49.700Z,1.90
2018-09-29T00:34:18.346Z,1.80
2018-09-29T00:36:46.977Z,1.70
2018-09-29T00:39:15.608Z,1.83
2018-09-29T00:41:44.260Z,1.80
2018-09-29T00:44:12.896Z,2.10
2018-09-29T00:46:41.548Z,1.90
2018-09-29T00:49:10.460Z,1.90
2018-09-29T00:51:39.089Z,2.03
2018-09-29T00:54:07.788Z,1.63
2018-09-29T00:56:36.454Z,2.20
2018-09-29T00:59:05.091Z,1.90
2018-09-29T01:01:33.729Z,1.77
2018-09-29T01:04:02.430Z,1.63
2018-09-29T01:06:31.088Z,1.80
2018-09-29T01:08:59.778Z,1.70
2018-09-29T01:11:28.437Z,1.70
2018-09-29T01:13:57.076Z,1.77
2018-09-29T01:16:25.719Z,1.67
2018-09-29T01:18:54.348Z,1.60
2018-09-29T01:21:23.043Z,2.00
2018-09-29T01:23:51.697Z,1.90
2018-09-29T01:26:20.352Z,2.00
2018-09-29T01:28:48.985Z,2.10
2018-09-29T01:31:17.636Z,1.90
2018-09-29T01:33:46.271Z,1.70
2018-09-29T01:36:15.176Z,2.00
2018-09-29T01:38:43.836Z,2.00
2018-09-29T01:41:12.536Z,1.90
2018-09-29T01:43:41.296Z,1.93
2018-09-29T01:46:09.929Z,1.90
2018-09-29T01:48:38.563Z,2.00
2018-09-29T01:51:07.231Z,1.80
2018-09-29T01:53:35.877Z,2.03
2018-09-29T01:56:04.516Z,1.60
2018-09-29T01:58:33.165Z,1.80
2018-09-29T02:01:01.819Z,1.57
2018-09-29T02:03:30.488Z,1.80
2018-09-29T02:05:59.132Z,1.87
2018-09-29T02:08:27.781Z,1.60
2018-09-29T02:10:56.604Z,1.90
2018-09-29T02:13:25.240Z,1.93
2018-09-29T02:15:53.899Z,1.73
2018-09-29T02:18:22.560Z,1.83
2018-09-29T02:20:51.214Z,2.00
2018-09-29T02:23:19.851Z,1.80
2018-09-29T02:25:48.558Z,1.60
2018-09-29T02:28:17.220Z,2.00
2018-09-29T02:30:45.857Z,1.93
2018-09-29T02:33:14.513Z,2.30
2018-09-29T02:35:43.152Z,1.97
2018-09-29T02:38:11.787Z,1.90
2018-09-29T02:40:40.452Z,1.77
2018-09-29T02:43:09.104Z,1.70
2018-09-29T02:45:37.787Z,1.70
2018-09-29T02:48:06.888Z,1.90
2018-09-29T02:50:35.765Z,1.80
2018-09-29T02:53:04.404Z,1.87
2018-09-29T02:55:33.089Z,1.63
2018-09-29T02:58:01.740Z,1.90
2018-09-29T03:00:30.524Z,1.83
2018-09-29T03:02:59.193Z,1.97
2018-09-29T03:05:27.828Z,2.10
2018-09-29T03:07:56.480Z,2.20
2018-09-29T03:10:25.161Z,2.00
2018-09-29T03:12:53.822Z,2.10
2018-09-29T03:15:22.469Z,1.80
2018-09-29T03:17:51.380Z,2.03
2018-09-29T03:20:20.039Z,2.00
2018-09-29T03:22:48.692Z,2.00
2018-09-29T03:25:17.371Z,1.97
2018-09-29T03:27:46.022Z,1.83
2018-09-29T03:30:14.670Z,1.93
2018-09-29T03:32:43.323Z,2.03
2018-09-29T03:35:11.986Z,2.00
2018-09-29T03:37:40.641Z,2.10
2018-09-29T03:40:09.280Z,2.03
2018-09-29T03:42:37.914Z,2.00
2018-09-29T03:45:06.815Z,1.90
2018-09-29T03:47:35.469Z,2.20
2018-09-29T03:50:04.130Z,2.30
2018-09-29T03:52:32.813Z,2.10
2018-09-29T03:55:01.464Z,2.17
2018-09-29T03:57:30.120Z,2.30
2018-09-29T03:59:58.747Z,1.90
2018-09-29T04:02:27.407Z,1.73
2018-09-29T04:04:56.064Z,2.20
2018-09-29T04:07:24.750Z,2.07
2018-09-29T04:09:53.418Z,2.00
2018-09-29T04:12:22.061Z,2.07
2018-09-29T04:14:50.714Z,2.00
2018-09-29T04:17:19.360Z,2.47
2018-09-29T04:19:47.983Z,2.23
2018-09-29T04:22:16.620Z,2.27
2018-09-29T04:24:45.280Z,2.47
2018-09-29T04:27:13.937Z,2.00
2018-09-29T04:29:42.580Z,2.10
2018-09-29T04:32:11.224Z,2.10
2018-09-29T04:34:39.909Z,2.10
2018-09-29T04:37:08.563Z,2.37
2018-09-29T04:39:37.204Z,2.33
2018-09-29T04:42:05.853Z,2.17
2018-09-29T04:44:34.520Z,2.10
2018-09-29T04:47:03.170Z,2.07
2018-09-29T04:49:31.820Z,2.20
2018-09-29T04:52:00.465Z,2.13
2018-09-29T04:54:29.109Z,2.27
2018-09-29T04:56:57.783Z,2.10
2018-09-29T04:59:26.440Z,2.30
2018-09-29T05:01:55.072Z,2.20
2018-09-29T05:04:23.739Z,2.40
2018-09-29T05:06:52.411Z,2.60
2018-09-29T05:09:21.073Z,2.30
2018-09-29T05:11:49.711Z,2.43
2018-09-29T05:14:18.388Z,2.30
2018-09-29T05:16:47.045Z,2.40
2018-09-29T05:19:15.692Z,2.03
2018-09-29T05:21:44.348Z,2.20
2018-09-29T05:24:13.047Z,2.50
2018-09-29T05:26:41.708Z,2.20
2018-09-29T05:29:10.391Z,2.37
2018-09-29T05:31:39.057Z,2.30
2018-09-29T05:34:07.716Z,2.43
2018-09-29T05:36:36.360Z,2.53
2018-09-29T05:39:06.220Z,2.33
2018-09-29T05:41:34.892Z,2.60
2018-09-29T05:44:03.720Z,2.23
2018-09-29T05:46:32.368Z,2.60
2018-09-29T05:49:01.098Z,2.20
2018-09-29T05:51:29.940Z,2.53
2018-09-29T05:53:58.673Z,2.17
2018-09-29T05:56:27.528Z,2.53
2018-09-29T05:58:56.180Z,2.90
2018-09-29T06:01:24.814Z,2.23
2018-09-29T06:03:53.457Z,2.77
2018-09-29T06:06:22.100Z,2.50
2018-09-29T06:08:50.736Z,2.67
2018-09-29T06:11:19.384Z,2.60
2018-09-29T06:13:48.029Z,2.80
2018-09-29T06:16:16.726Z,2.30
2018-09-29T06:18:45.396Z,2.63
2018-09-29T06:21:14.040Z,2.10
2018-09-29T06:23:42.697Z,2.77
2018-09-29T06:26:11.358Z,2.53
2018-09-29T06:28:40.004Z,2.77
2018-09-29T06:31:08.748Z,2.57
2018-09-29T06:33:37.888Z,2.80
2018-09-29T06:36:06.857Z,2.60
2018-09-29T06:38:36.108Z,2.70
2018-09-29T06:41:05.154Z,3.10
2018-09-29T06:43:33.833Z,2.90
2018-09-29T06:46:02.477Z,3.00
2018-09-29T06:48:31.149Z,2.90
2018-09-29T06:50:59.816Z,2.50
2018-09-29T06:53:28.539Z,2.80
2018-09-29T06:55:57.222Z,3.00
2018-09-29T06:58:25.886Z,2.90
2018-09-29T07:00:54.585Z,3.00
2018-09-29T07:03:23.261Z,2.80
2018-09-29T07:05:51.908Z,2.80
2018-09-29T07:08:20.580Z,2.60
2018-09-29T07:10:49.224Z,2.60
2018-09-29T07:13:17.877Z,2.77
2018-09-29T07:15:46.525Z,2.53
2018-09-29T07:18:15.173Z,2.60
2018-09-29T07:20:43.865Z,2.90
2018-09-29T07:23:12.499Z,2.60
2018-09-29T07:25:41.138Z,2.40
2018-09-29T07:28:09.784Z,2.60
2018-09-29T07:30:38.417Z,2.50
2018-09-29T07:33:07.435Z,2.50
2018-09-29T07:35:36.125Z,2.70
2018-09-29T07:38:04.803Z,2.40
2018-09-29T07:40:33.480Z,2.70
2018-09-29T07:43:02.128Z,2.60
2018-09-29T07:45:30.779Z,2.90
2018-09-29T07:47:59.432Z,2.47
2018-09-29T07:50:28.068Z,2.50
2018-09-29T07:52:56.733Z,2.47
2018-09-29T07:55:25.392Z,2.57
2018-09-29T07:57:54.046Z,2.60
2018-09-29T08:00:22.700Z,2.47
2018-09-29T08:02:51.345Z,2.37
2018-09-29T08:05:19.980Z,2.40
2018-09-29T08:07:48.609Z,2.30
2018-09-29T08:10:17.268Z,2.40
2018-09-29T08:12:45.904Z,2.50
2018-09-29T08:15:14.603Z,2.37
2018-09-29T08:17:43.277Z,2.67
2018-09-29T08:20:11.989Z,2.30
2018-09-29T08:22:41.145Z,2.50
2018-09-29T08:25:09.800Z,2.23
2018-09-29T08:27:38.437Z,2.40
2018-09-29T08:30:07.252Z,2.30
2018-09-29T08:32:36.173Z,2.47
2018-09-29T08:35:04.829Z,2.80
2018-09-29T08:37:33.476Z,2.60
2018-09-29T08:40:02.120Z,2.67
2018-09-29T08:42:30.769Z,2.40
2018-09-29T08:44:59.429Z,2.50
2018-09-29T08:47:28.096Z,2.50
2018-09-29T08:49:56.750Z,2.37
2018-09-29T08:52:25.384Z,2.50
2018-09-29T08:54:54.049Z,2.40
2018-09-29T08:57:22.706Z,2.37
2018-09-29T09:00:22.048Z,2.60
2018-09-29T09:02:50.865Z,2.10
2018-09-29T09:05:19.536Z,2.30
2018-09-29T09:07:48.169Z,2.20
2018-09-29T09:10:16.837Z,2.63
2018-09-29T09:12:45.485Z,2.40
2018-09-29T09:15:14.164Z,2.50
2018-09-29T09:17:42.826Z,2.50
2018-09-29T09:20:11.491Z,2.73
2018-09-29T09:22:40.548Z,2.83
2018-09-29T09:25:09.198Z,2.50
2018-09-29T09:27:37.880Z,2.47
2018-09-29T09:30:06.609Z,2.40
2018-09-29T09:32:35.206Z,2.63
2018-09-29T09:35:03.882Z,2.70
2018-09-29T09:37:32.528Z,2.17
2018-09-29T09:40:01.163Z,2.57
2018-09-29T09:42:29.812Z,2.40
2018-09-29T09:44:58.449Z,2.30
2018-09-29T09:47:27.157Z,2.50
2018-09-29T09:49:55.848Z,2.50
2018-09-29T09:52:24.484Z,2.43
2018-09-29T09:54:53.124Z,2.47
2018-09-29T09:57:21.901Z,2.43
2018-09-29T09:59:50.544Z,2.27
2018-09-29T10:02:24.488Z,2.50
2018-09-29T10:04:53.132Z,2.53
2018-09-29T10:07:21.788Z,2.20
2018-09-29T10:09:50.422Z,2.50
2018-09-29T10:12:19.061Z,2.43
2018-09-29T10:14:47.733Z,2.50
2018-09-29T10:17:16.417Z,2.63
2018-09-29T10:19:45.066Z,2.43
2018-09-29T10:22:13.734Z,2.40
2018-09-29T10:24:42.401Z,2.40
2018-09-29T10:27:11.069Z,2.30
2018-09-29T10:29:39.761Z,2.67
2018-09-29T10:32:08.423Z,2.27
2018-09-29T10:34:37.092Z,2.30
2018-09-29T10:37:05.901Z,2.27
2018-09-29T10:39:34.560Z,2.63
2018-09-29T10:42:03.208Z,2.30
2018-09-29T10:44:31.859Z,2.50
2018-09-29T10:47:00.484Z,2.40
2018-09-29T10:49:29.163Z,2.43
2018-09-29T10:51:57.881Z,2.10
2018-09-29T10:54:26.533Z,2.13
2018-09-29T10:56:55.168Z,2.40
2018-09-29T10:59:23.828Z,2.40
2018-09-29T11:01:52.464Z,2.07
2018-09-29T11:04:21.093Z,2.43
2018-09-29T11:06:49.739Z,2.10
2018-09-29T11:09:18.405Z,2.33
2018-09-29T11:11:47.059Z,2.00
2018-09-29T11:14:15.898Z,2.20
2018-09-29T11:16:44.526Z,2.20
2018-09-29T11:19:13.172Z,2.10
2018-09-29T11:21:41.816Z,2.10
2018-09-29T11:24:10.465Z,2.03
2018-09-29T11:26:39.100Z,2.03
2018-09-29T11:29:07.763Z,2.30
2018-09-29T11:31:36.400Z,2.33
2018-09-29T11:34:05.050Z,2.23
2018-09-29T11:36:33.688Z,2.03
2018-09-29T11:39:02.361Z,2.00
2018-09-29T11:41:30.998Z,2.10
2018-09-29T11:43:59.705Z,2.10
2018-09-29T11:46:28.360Z,2.03
2018-09-29T11:48:57.026Z,2.47
2018-09-29T11:51:25.688Z,1.83
2018-09-29T11:53:54.358Z,2.27
2018-09-29T11:56:23.037Z,2.30
2018-09-29T11:58:51.667Z,1.90
2018-09-29T12:01:20.308Z,1.90
2018-09-29T12:03:48.950Z,2.37
2018-09-29T12:06:17.820Z,1.70
2018-09-29T12:08:46.497Z,1.80
2018-09-29T12:11:15.138Z,1.90
2018-09-29T12:13:44.248Z,2.10
2018-09-29T12:16:12.847Z,1.90
2018-09-29T12:18:41.486Z,2.00
2018-09-29T12:21:10.187Z,2.13
2018-09-29T12:23:38.850Z,1.97
2018-09-29T12:26:07.484Z,2.17
2018-09-29T12:28:36.125Z,2.20
2018-09-29T12:31:04.761Z,2.10
2018-09-29T12:33:33.396Z,2.10
2018-09-29T12:36:02.042Z,1.80
2018-09-29T12:38:30.737Z,2.10
2018-09-29T12:40:59.384Z,1.70
2018-09-29T12:43:28.036Z,1.97
2018-09-29T12:45:56.708Z,2.40
2018-09-29T12:48:25.352Z,1.90
2018-09-29T12:50:53.998Z,2.07
2018-09-29T12:53:22.660Z,2.10
2018-09-29T12:55:51.312Z,2.10
2018-09-29T12:58:19.953Z,2.10
2018-09-29T13:00:48.584Z,1.70
2018-09-29T13:03:17.236Z,1.90
2018-09-29T13:05:45.907Z,1.80
2018-09-29T13:08:14.593Z,2.23
2018-09-29T13:10:43.249Z,1.70
2018-09-29T13:13:11.888Z,1.90
2018-09-29T13:15:40.537Z,1.80
2018-09-29T13:18:09.201Z,2.00
2018-09-29T13:20:37.896Z,1.90
2018-09-29T13:23:06.779Z,1.80
2018-09-29T13:25:35.424Z,2.10
2018-09-29T13:28:04.069Z,1.90
2018-09-29T13:30:32.833Z,1.70
2018-09-29T13:33:01.487Z,1.80
2018-09-29T13:35:30.189Z,2.00
2018-09-29T13:37:58.870Z,1.97
2018-09-29T13:40:27.539Z,1.70
2018-09-29T13:42:56.180Z,1.70
2018-09-29T13:45:24.816Z,2.20
2018-09-29T13:47:53.477Z,1.93
2018-09-29T13:50:22.125Z,2.00
2018-09-29T13:52:50.765Z,2.00
2018-09-29T13:55:19.405Z,1.40
2018-09-29T13:57:48.052Z,1.83
2018-09-29T14:00:16.705Z,1.83
2018-09-29T14:02:45.397Z,1.63
2018-09-29T14:05:14.089Z,1.83
2018-09-29T14:07:42.741Z,1.70
2018-09-29T14:10:11.367Z,1.80
2018-09-29T14:12:40.013Z,2.20
2018-09-29T14:15:08.989Z,1.70
2018-09-29T14:17:37.848Z,2.00
2018-09-29T14:20:07.320Z,2.20
2018-09-29T14:22:35.961Z,1.53
2018-09-29T14:25:04.853Z,1.77
2018-09-29T14:27:33.508Z,1.80
2018-09-29T14:30:02.211Z,1.70
2018-09-29T14:32:30.820Z,1.77
2018-09-29T14:34:59.466Z,1.80
2018-09-29T14:37:28.107Z,1.90
2018-09-29T14:39:56.742Z,1.63
2018-09-29T14:42:25.405Z,1.80
2018-09-29T14:44:54.100Z,2.03
2018-09-29T14:47:22.772Z,1.80
2018-09-29T14:49:51.412Z,1.80
2018-09-29T14:52:20.115Z,1.87
2018-09-29T14:54:48.712Z,1.70
2018-09-29T14:57:17.380Z,2.00
2018-09-29T14:59:46.069Z,1.60
2018-09-29T15:02:14.723Z,2.10
2018-09-29T15:04:43.357Z,1.90
2018-09-29T15:07:12.165Z,2.30
2018-09-29T15:09:40.849Z,1.80
2018-09-29T15:12:09.904Z,1.80
2018-09-29T15:14:38.568Z,1.77
2018-09-29T15:17:07.236Z,2.07
2018-09-29T15:19:35.897Z,1.70
2018-09-29T15:22:04.558Z,1.87
2018-09-29T15:24:33.415Z,1.70
2018-09-29T15:27:02.085Z,1.90
2018-09-29T15:29:30.721Z,2.00
2018-09-29T15:31:59.674Z,1.90
2018-09-29T15:34:28.325Z,1.90
2018-09-29T15:36:57.112Z,1.80
2018-09-29T15:39:25.726Z,1.77
2018-09-29T15:41:54.376Z,1.70
2018-09-29T15:44:23.044Z,1.57
2018-09-29T15:46:51.704Z,1.77
2018-09-29T15:49:20.370Z,1.50
2018-09-29T15:51:49.028Z,1.50
2018-09-29T15:54:17.676Z,1.63
2018-09-29T15:56:46.315Z,2.03
2018-09-29T15:59:14.951Z,1.90
2018-09-29T16:01:43.617Z,1.70
2018-09-29T16:04:12.252Z,1.80
2018-09-29T16:06:40.912Z,1.87
2018-09-29T16:09:10.532Z,1.73
2018-09-29T16:11:40.149Z,1.80
2018-09-29T16:14:08.848Z,1.67
2018-09-29T16:16:37.825Z,1.80
2018-09-29T16:19:06.817Z,1.63
2018-09-29T16:21:35.456Z,1.60
2018-09-29T16:24:04.294Z,1.70
2018-09-29T16:26:32.965Z,1.60
2018-09-29T16:29:01.855Z,1.77
2018-09-29T16:31:30.505Z,1.67
2018-09-29T16:33:59.144Z,1.60
2018-09-29T16:36:27.796Z,2.00
2018-09-29T16:38:56.432Z,1.50
2018-09-29T16:41:25.119Z,1.50
2018-09-29T16:43:53.764Z,1.83
2018-09-29T16:46:22.448Z,1.50
2018-09-29T16:48:51.108Z,1.77
2018-09-29T16:51:19.744Z,1.57
2018-09-29T16:53:48.424Z,1.80
2018-09-29T16:56:17.111Z,1.30
2018-09-29T16:58:45.767Z,1.67
2018-09-29T17:01:14.407Z,1.63
2018-09-29T17:03:43.131Z,1.53
2018-09-29T17:06:11.773Z,1.30
2018-09-29T17:08:40.432Z,1.30
2018-09-29T17:11:09.083Z,1.73
2018-09-29T17:13:37.736Z,1.70
2018-09-29T17:16:07.072Z,1.57
2018-09-29T17:18:35.876Z,1.57
2018-09-29T17:21:04.840Z,1.50
2018-09-29T17:23:33.916Z,1.43
2018-09-29T17:26:02.644Z,1.50
2018-09-29T17:28:31.317Z,1.37
2018-09-29T17:31:00.224Z,1.50
2018-09-29T17:33:28.933Z,1.40
2018-09-29T17:35:57.588Z,1.50
2018-09-29T17:38:26.241Z,1.50
2018-09-29T17:40:54.880Z,1.50
2018-09-29T17:43:23.522Z,1.53
2018-09-29T17:45:52.227Z,1.60
2018-09-29T17:48:20.887Z,1.23
2018-09-29T17:50:49.550Z,1.40
2018-09-29T17:53:18.209Z,1.20
2018-09-29T17:55:46.900Z,1.47
2018-09-29T17:58:15.559Z,1.60
2018-09-29T18:00:44.205Z,1.63
2018-09-29T18:03:12.873Z,1.57
2018-09-29T18:05:41.545Z,1.33
2018-09-29T18:08:10.201Z,1.27
2018-09-29T18:10:38.856Z,1.23
2018-09-29T18:13:07.501Z,1.47
2018-09-29T18:15:36.169Z,1.50
2018-09-29T18:18:04.992Z,1.30
2018-09-29T18:20:33.928Z,1.67
2018-09-29T18:23:02.568Z,1.33
2018-09-29T18:25:31.236Z,1.40
2018-09-29T18:28:00.321Z,1.10
2018-09-29T18:30:29.145Z,1.30
2018-09-29T18:32:57.873Z,1.33
2018-09-29T18:35:26.535Z,1.30
2018-09-29T18:37:55.181Z,1.03
2018-09-29T18:40:23.833Z,1.17
2018-09-29T18:42:52.496Z,1.60
2018-09-29T18:45:21.172Z,1.47
2018-09-29T18:47:49.871Z,1.30
2018-09-29T18:50:18.540Z,1.50
2018-09-29T18:52:47.192Z,1.70
2018-09-29T18:55:15.853Z,1.30
2018-09-29T18:57:44.577Z,1.40
2018-09-29T19:00:13.225Z,1.63
2018-09-29T19:02:41.886Z,1.30
2018-09-29T19:05:10.520Z,1.20
2018-09-29T19:07:39.169Z,1.23
2018-09-29T19:10:07.821Z,1.43
2018-09-29T19:12:36.477Z,1.30
2018-09-29T19:15:05.173Z,1.20
2018-09-29T19:17:34.166Z,1.40
2018-09-29T19:20:02.811Z,1.40
2018-09-29T19:22:31.475Z,1.10
2018-09-29T19:25:00.167Z,1.10
2018-09-29T19:27:29.050Z,1.60
2018-09-29T19:29:57.701Z,1.07
2018-09-29T19:32:26.426Z,1.20
2018-09-29T19:34:55.093Z,1.20
2018-09-29T19:37:23.784Z,1.10
2018-09-29T19:39:52.436Z,1.07
2018-09-29T19:42:21.125Z,1.00
2018-09-29T19:44:49.782Z,1.00
2018-09-29T19:47:18.422Z,1.30
2018-09-29T19:49:47.092Z,0.87
2018-09-29T19:52:15.748Z,1.43
2018-09-29T19:54:44.629Z,0.90
2018-09-29T19:57:13.270Z,1.17
2018-09-29T19:59:41.908Z,1.20
2018-09-29T20:02:10.544Z,1.13
2018-09-29T20:04:39.214Z,1.00
2018-09-29T20:07:07.861Z,1.27
2018-09-29T20:09:36.500Z,1.07
2018-09-29T20:12:05.162Z,0.97
2018-09-29T20:14:33.825Z,1.00
2018-09-29T20:17:02.503Z,1.30
2018-09-29T20:19:31.136Z,1.20
2018-09-29T20:21:59.833Z,1.00
2018-09-29T20:24:28.508Z,1.20
2018-09-29T20:26:57.164Z,0.90
2018-09-29T20:29:25.841Z,0.87
2018-09-29T20:31:54.488Z,1.20
2018-09-29T20:34:23.116Z,1.00
2018-09-29T20:36:51.752Z,0.90
2018-09-29T20:39:20.381Z,1.10
2018-09-29T20:41:49.025Z,0.93
2018-09-29T20:44:17.657Z,1.17
2018-09-29T20:46:46.301Z,1.20
2018-09-29T20:49:15.014Z,0.90
2018-09-29T20:51:43.634Z,1.10
2018-09-29T20:54:12.309Z,0.97
2018-09-29T20:56:40.972Z,1.00
2018-09-29T20:59:09.608Z,1.20
2018-09-29T21:01:38.312Z,1.00
2018-09-29T21:04:07.329Z,0.80
2018-09-29T21:06:35.992Z,1.00
2018-09-29T21:09:06.093Z,1.20
2018-09-29T21:11:34.952Z,0.97
2018-09-29T21:14:03.611Z,0.80
2018-09-29T21:16:32.262Z,1.00
2018-09-29T21:19:00.929Z,1.10
2018-09-29T21:21:29.600Z,0.93
2018-09-29T21:23:58.263Z,0.90
2018-09-29T21:26:26.908Z,1.03
2018-09-29T21:28:55.562Z,0.80
2018-09-29T21:31:24.216Z,1.10
2018-09-29T21:33:52.856Z,0.87
2018-09-29T21:36:21.511Z,1.23
2018-09-29T21:38:50.216Z,0.70
2018-09-29T21:41:18.876Z,0.97
2018-09-29T21:43:47.520Z,1.00
2018-09-29T21:46:16.160Z,0.80
2018-09-29T21:48:44.830Z,0.90
2018-09-29T21:51:13.479Z,1.20
2018-09-29T21:53:42.124Z,1.10
2018-09-29T21:56:10.790Z,1.30
2018-09-29T21:58:39.448Z,0.93
2018-09-29T22:01:13.279Z,1.00
2018-09-29T22:03:41.975Z,1.00
2018-09-29T22:06:10.614Z,0.90
2018-09-29T22:08:39.257Z,1.00
2018-09-29T22:11:08.135Z,0.97
2018-09-29T22:13:36.773Z,1.10
2018-09-29T22:16:05.417Z,0.80
2018-09-29T22:18:34.089Z,1.00
2018-09-29T22:21:02.766Z,0.80
2018-09-29T22:23:31.408Z,0.93
2018-09-29T22:26:00.072Z,0.80
2018-09-29T22:28:28.712Z,0.80
2018-09-29T22:30:57.343Z,1.00
2018-09-29T22:33:25.992Z,1.40
2018-09-29T22:35:54.670Z,1.00
2018-09-29T22:38:23.336Z,0.93
2018-09-29T22:40:51.998Z,1.03
2018-09-29T22:43:20.642Z,1.00
2018-09-29T22:45:49.368Z,0.90
2018-09-29T22:48:18.022Z,1.00
2018-09-29T22:50:46.663Z,0.90
2018-09-29T22:53:15.305Z,0.87
2018-09-29T22:55:43.951Z,1.10
2018-09-29T22:58:12.639Z,1.00
2018-09-29T23:00:41.279Z,0.80
2018-09-29T23:03:09.960Z,0.70
2018-09-29T23:05:38.601Z,0.70
2018-09-29T23:08:07.715Z,1.00
2018-09-29T23:10:36.573Z,0.90
2018-09-29T23:13:05.237Z,0.67
2018-09-29T23:15:33.916Z,0.70
2018-09-29T23:18:02.584Z,0.70
2018-09-29T23:20:31.227Z,0.80
2018-09-29T23:22:59.890Z,0.90
2018-09-29T23:25:28.581Z,0.80
2018-09-29T23:27:57.245Z,0.90
2018-09-29T23:30:26.056Z,1.23
2018-09-29T23:32:54.697Z,0.90
2018-09-29T23:35:23.342Z,0.80
2018-09-29T23:37:52.380Z,1.03
2018-09-29T23:40:21.021Z,0.80
2018-09-29T23:42:49.665Z,0.70
2018-09-29T23:45:18.353Z,0.80
2018-09-29T23:47:47.028Z,0.90
2018-09-29T23:50:15.689Z,0.93
2018-09-29T23:52:44.340Z,0.70
2018-09-29T23:55:12.996Z,0.80
2018-09-29T23:57:41.669Z,0.70
